M I D A S
Marine Information and Data Acquisition System
Tripno 278 of the Zeeleeuw from 2002-05-17 07:00:00 to 2002-05-17 15:25:00
Back to CruiseResearch ActivitiesStationsMapUnderway DataData graphs

EquipmentUnitsComment
TimeDGPSUTC
LatitudeDGPSDM.mWGS84
LongitudeDGPSDM.mWGS84
HeadingGyrodeg 
SOGDGPSknotsSpeed over ground
COGDGPSdegCourse over ground
DepthEcho soundermeters200 kHz
Missing or incorrect values are displayed as -999
Navigation data collected by the RV Zeeleeuw from 2002-05-17 07:00:00 to 2002-05-17 15:25:00
Time Latitude Longitude Heading SOG COG Depth
2002-05-17 07:01:03 51°13.719 2°55.771 310.3 5.7 306.9 10.7
2002-05-17 07:02:02 51°13.792 2°55.665 331.8 6.2 328.4 10.4
2002-05-17 07:03:03 51°13.887 2°55.584 335.3 6.4 332.2 9.9
2002-05-17 07:04:03 51°13.983 2°55.511 338.2 6.5 335.1 10.3
2002-05-17 07:05:03 51°14.083 2°55.439 338.2 6.6 335.8 10.2
2002-05-17 07:06:03 51°14.182 2°55.362 335.3 6.6 332.6 10.4
2002-05-17 07:07:03 51°14.268 2°55.255 317.7 6.6 315 10.3
2002-05-17 07:08:03 51°14.337 2°55.118 309.7 6.7 306.4 9.7
2002-05-17 07:09:03 51°14.414 2°54.956 316.7 9.6 309.5 10.1
2002-05-17 07:10:03 51°14.542 2°54.722 319.3 12.3 311.8 9.8
2002-05-17 07:11:02 51°14.705 2°54.545 339.7 12 331.7 9.8
2002-05-17 07:12:03 51°14.882 2°54.385 336.8 12 329.5 9.2
2002-05-17 07:13:03 51°15.055 2°54.228 337 11.9 330.1 8.6
2002-05-17 07:14:03 51°15.231 2°54.065 336.3 12.5 329.2 9.2
2002-05-17 07:15:03 51°15.413 2°53.893 336.5 12.8 329.7 9.9
2002-05-17 07:16:02 51°15.593 2°53.719 336 12.9 328.9 10.6
2002-05-17 07:17:03 51°15.781 2°53.534 336.2 13.1 328.6 11.3
2002-05-17 07:18:03 51°15.968 2°53.355 335.7 13.2 329.1 11.8
2002-05-17 07:19:03 51°16.155 2°53.166 335.2 13.3 328.5 12.2
2002-05-17 07:20:03 51°16.345 2°52.978 337 13.5 330 12.3
2002-05-17 07:21:03 51°16.551 2°52.832 346.3 13.5 339.3 11
2002-05-17 07:22:03 51°16.761 2°52.703 346.3 13.5 339.5 9.5
2002-05-17 07:23:02 51°16.97 2°52.604 351 13.4 344.6 -999
2002-05-17 07:24:04 51°17.195 2°52.527 1.5 13.3 354.3 -999
2002-05-17 07:25:03 51°17.414 2°52.493 1.2 13.5 354.3 9.9
2002-05-17 07:26:03 51°17.637 2°52.453 0.7 13.4 353.4 10.3
2002-05-17 07:27:02 51°17.85 2°52.469 19.7 13 12 10.1
2002-05-17 07:28:03 51°18.051 2°52.598 38.2 12.8 30.8 10.4
2002-05-17 07:29:03 51°18.182 2°52.857 63.7 12.6 59.2 10.4
2002-05-17 07:30:02 51°18.283 2°53.143 70 12.6 66 10.7
2002-05-17 07:31:03 51°18.376 2°53.446 67 12.6 62.8 10.8
2002-05-17 07:32:03 51°18.471 2°53.742 67 12.6 62.7 10.7
2002-05-17 07:33:03 51°18.569 2°54.034 66.5 12.5 62 10.7
2002-05-17 07:34:02 51°18.666 2°54.319 65.8 12.5 61.3 10.8
2002-05-17 07:35:03 51°18.769 2°54.613 65.7 12.5 61.1 10.8
2002-05-17 07:36:03 51°18.87 2°54.902 65.8 12.4 61.4 10.8
2002-05-17 07:37:03 51°18.972 2°55.19 64.8 12.5 60.1 10.8
2002-05-17 07:38:03 51°19.076 2°55.481 66.5 12.7 61.6 10.8
2002-05-17 07:39:03 51°19.172 2°55.779 70.7 12.7 65.7 10.7
2002-05-17 07:40:03 51°19.258 2°56.081 71.3 12.5 66.4 10.7
2002-05-17 07:41:03 51°19.344 2°56.382 70.7 12.4 65.4 10.5
2002-05-17 07:42:03 51°19.43 2°56.682 70 12.5 64.9 10.5
2002-05-17 07:43:03 51°19.506 2°56.988 73.2 12.4 68.3 10.2
2002-05-17 07:44:03 51°19.581 2°57.295 73.5 12.3 69.1 10.2
2002-05-17 07:45:02 51°19.655 2°57.593 74 12.3 69 10.2
2002-05-17 07:46:03 51°19.73 2°57.899 73.2 12.2 68.1 9.9
2002-05-17 07:47:03 51°19.808 2°58.202 73.2 12.1 68 10
2002-05-17 07:48:03 51°19.881 2°58.494 73.7 11.9 68.3 9.8
2002-05-17 07:49:03 51°19.955 2°58.787 73.3 11.9 68.1 9.8
2002-05-17 07:50:03 51°20.03 2°59.079 72.8 11.9 67.6 9.7
2002-05-17 07:51:03 51°20.104 2°59.372 73.3 11.9 68.2 9.6
2002-05-17 07:52:08 51°20.183 2°59.688 74 11.8 68.8 9.4
2002-05-17 07:53:09 51°20.258 2°59.987 73 12 67.7 9.4
2002-05-17 07:54:09 51°20.332 3°0.281 73 11.9 67.8 9.3
2002-05-17 07:55:09 51°20.408 3°0.574 72.7 11.9 67.4 9.2
2002-05-17 07:56:09 51°20.48 3°0.868 73 11.9 68.2 9.2
2002-05-17 07:57:09 51°20.554 3°1.161 73.2 11.9 68.3 9.4
2002-05-17 07:58:09 51°20.629 3°1.454 72.5 11.9 67.4 9.3
2002-05-17 07:59:08 51°20.698 3°1.744 73.3 11.9 68.6 9.4
2002-05-17 08:00:08 51°20.772 3°2.037 73.7 11.9 69 9.2
2002-05-17 08:01:09 51°20.846 3°2.334 73.8 11.9 69.2 9.3
2002-05-17 08:02:08 51°20.918 3°2.622 74 11.8 69.7 9.4
2002-05-17 08:03:09 51°20.989 3°2.919 72.5 11.8 68.2 9.3
2002-05-17 08:04:08 51°21.059 3°3.206 72.8 11.8 68.2 9.1
2002-05-17 08:05:09 51°21.138 3°3.5 69.7 11.9 65.1 9.4
2002-05-17 08:06:09 51°21.218 3°3.787 71 11.9 66.3 9.3
2002-05-17 08:07:09 51°21.296 3°4.077 71.5 11.8 67.1 9.3
2002-05-17 08:08:09 51°21.374 3°4.365 71 11.8 66.8 9.6
2002-05-17 08:09:08 51°21.45 3°4.649 71.7 11.8 67.4 10.1
2002-05-17 08:10:08 51°21.53 3°4.935 71.3 11.8 66.5 10.1
2002-05-17 08:11:09 51°21.609 3°5.225 71 11.8 66.5 10.1
2002-05-17 08:12:09 51°21.688 3°5.51 70.5 11.8 65.5 10.2
2002-05-17 08:13:09 51°21.77 3°5.798 71 11.6 65.7 10.4
2002-05-17 08:14:08 51°21.844 3°6.072 71.7 11.6 66.4 10.4
2002-05-17 08:15:08 51°21.922 3°6.353 71.3 11.6 66 10.7
2002-05-17 08:16:09 51°22.003 3°6.64 71 11.8 65.6 11
2002-05-17 08:17:08 51°22.082 3°6.92 71 11.8 66.1 11.1
2002-05-17 08:18:08 51°22.151 3°7.214 74.2 11.8 70.6 11.3
2002-05-17 08:19:09 51°22.215 3°7.514 74.7 11.7 72.3 11.3
2002-05-17 08:20:09 51°22.277 3°7.806 74.2 11.5 71.9 11.4
2002-05-17 08:21:08 51°22.338 3°8.091 74.7 11.5 72.4 11.3
2002-05-17 08:22:09 51°22.402 3°8.385 74.3 11.4 71.4 11.6
2002-05-17 08:23:08 51°22.462 3°8.667 73.3 11.4 70.1 11.9
2002-05-17 08:24:09 51°22.528 3°8.956 74.2 11.4 70.5 11.9
2002-05-17 08:25:09 51°22.577 3°9.192 75.5 7.4 71.9 12.3
2002-05-17 08:26:09 51°22.606 3°9.327 73.2 4.5 68.2 12.2
2002-05-17 08:27:09 51°22.628 3°9.394 69.7 1.9 55.7 12.5
2002-05-17 08:28:08 51°22.653 3°9.414 42.2 2 0.2 12.1
2002-05-17 08:29:09 51°22.683 3°9.379 16.5 2.1 277.3 12.4
2002-05-17 08:30:08 51°22.699 3°9.333 35.2 2.4 343.7 12.4
2002-05-17 08:31:08 51°22.721 3°9.321 56.5 1.1 336.2 12.5
2002-05-17 08:32:09 51°22.735 3°9.31 60.2 0.8 337.7 12.4
2002-05-17 08:33:09 51°22.742 3°9.306 77.3 0.2 337.3 12.5
2002-05-17 08:34:08 51°22.747 3°9.304 68.3 0.4 349.1 12.4
2002-05-17 08:35:08 51°22.758 3°9.3 61 0.8 347.9 12.1
2002-05-17 08:36:09 51°22.772 3°9.295 61.3 0.8 347.6 12.4
2002-05-17 08:37:09 51°22.781 3°9.293 75.5 0.4 0.1 12.4
2002-05-17 08:38:09 51°22.781 3°9.294 92.5 0.3 171.3 12.4
2002-05-17 08:39:09 51°22.77 3°9.294 101.8 0.8 182.3 12.4
2002-05-17 08:40:09 51°22.761 3°9.292 85.7 0.3 198.5 12.3
2002-05-17 08:41:09 51°22.759 3°9.289 87 0.2 189.9 12.4
2002-05-17 08:42:09 51°22.752 3°9.29 96 0.5 175.2 12.3
2002-05-17 08:43:09 51°22.744 3°9.291 86.7 0.3 175.2 12.4
2002-05-17 08:44:09 51°22.745 3°9.29 74.2 0.2 346 12.3
2002-05-17 08:45:09 51°22.749 3°9.289 76 0.3 7.6 12.3
2002-05-17 08:46:09 51°22.753 3°9.291 73.8 0.3 4.2 12.3
2002-05-17 08:47:09 51°22.764 3°9.286 53 1.1 337.1 12.3
2002-05-17 08:48:09 51°22.786 3°9.266 37.3 1.7 329.2 12.4
2002-05-17 08:49:09 51°22.808 3°9.243 49.2 1.3 319.5 12.3
2002-05-17 08:50:09 51°22.816 3°9.254 98.7 2 108.9 12.3
2002-05-17 08:51:09 51°22.765 3°9.318 124.3 4.9 140.3 12.3
2002-05-17 08:52:09 51°22.711 3°9.423 113 5.3 124 12.3
2002-05-17 08:53:09 51°22.695 3°9.505 79.8 1.8 82.1 12.4
2002-05-17 08:54:09 51°22.706 3°9.526 62.5 0.9 20.5 12.4
2002-05-17 08:55:09 51°22.718 3°9.523 59.7 0.8 338.2 12.3
2002-05-17 08:56:09 51°22.727 3°9.51 66.3 0.7 307.4 12.4
2002-05-17 08:57:09 51°22.73 3°9.495 80.3 0.6 268.2 12.3
2002-05-17 08:58:09 51°22.728 3°9.476 85.7 0.8 251.5 12.2
2002-05-17 08:59:09 51°22.721 3°9.453 96.2 1 238.5 12.2
2002-05-17 09:00:09 51°22.708 3°9.431 112.7 1.2 216.9 12.1
2002-05-17 09:01:09 51°22.686 3°9.412 131.5 1.7 203.4 12.3
2002-05-17 09:02:09 51°22.655 3°9.392 140.5 2.2 200 12.1
2002-05-17 09:03:09 51°22.62 3°9.375 139.3 2.2 195.2 12.3
2002-05-17 09:04:09 51°22.584 3°9.361 138.8 2.2 192.4 12.3
2002-05-17 09:05:08 51°22.549 3°9.349 139.7 2.2 192.3 12.3
2002-05-17 09:06:09 51°22.512 3°9.335 142.2 2.3 193 12.1
2002-05-17 09:07:09 51°22.473 3°9.32 145.2 2.5 193.8 12.1
2002-05-17 09:08:08 51°22.404 3°9.307 181.5 7.2 192.9 12
2002-05-17 09:09:09 51°22.344 3°9.117 293.3 8.6 281.4 11.8
2002-05-17 09:10:09 51°22.45 3°8.999 358.2 8.5 341.7 12
2002-05-17 09:11:09 51°22.595 3°8.922 354.8 9.4 339.6 11.8
2002-05-17 09:12:09 51°22.743 3°8.829 354.3 9.6 339 12
2002-05-17 09:13:08 51°22.89 3°8.739 352.7 9.7 338.4 12
2002-05-17 09:14:09 51°23.043 3°8.652 3.2 9.4 347.4 11.6
2002-05-17 09:15:08 51°23.164 3°8.631 10.7 5.7 351 11.4
2002-05-17 09:16:09 51°23.238 3°8.591 1.7 4.1 334.6 11.4
2002-05-17 09:17:09 51°23.292 3°8.539 358.5 3.6 326 11.6
2002-05-17 09:18:09 51°23.336 3°8.487 359.3 3.2 322.5 12.3
2002-05-17 09:19:09 51°23.377 3°8.434 358.2 3.2 320.3 13.6
2002-05-17 09:20:09 51°23.463 3°8.327 336.5 10.4 324.9 15.5
2002-05-17 09:21:09 51°23.644 3°8.164 343 13 331.9 17.2
2002-05-17 09:22:08 51°23.844 3°7.984 342.5 14.3 330.3 17.4
2002-05-17 09:23:09 51°24.054 3°7.801 343.5 14 332.1 17.4
2002-05-17 09:24:09 51°24.243 3°7.66 344 12 335 14
2002-05-17 09:25:09 51°24.422 3°7.518 343.3 12 333.6 10.8
2002-05-17 09:26:09 51°24.602 3°7.381 342.7 12 333.9 10
2002-05-17 09:27:09 51°24.782 3°7.247 342.5 11.9 334.3 9.5
2002-05-17 09:28:09 51°24.961 3°7.117 344 11.7 336.3 9
2002-05-17 09:29:09 51°25.137 3°6.988 343.2 11.6 335.5 8.4
2002-05-17 09:30:09 51°25.314 3°6.859 342.3 11.6 334.5 8.9
2002-05-17 09:31:09 51°25.488 3°6.729 343.2 11.6 335.2 9.3
2002-05-17 09:32:08 51°25.66 3°6.6 342.8 11.6 334.9 9.3
2002-05-17 09:33:08 51°25.833 3°6.468 344 11.4 335.8 9.1
2002-05-17 09:34:09 51°26.016 3°6.427 17.3 10.9 9.7 9.2
2002-05-17 09:35:08 51°26.175 3°6.543 38.2 10.7 32.6 9.2
2002-05-17 09:36:08 51°26.32 3°6.709 41.5 10.8 36.3 9.4
2002-05-17 09:37:09 51°26.47 3°6.876 40 10.8 34.7 10
2002-05-17 09:38:08 51°26.61 3°7.048 44.5 10.8 39.6 10.3
2002-05-17 09:39:09 51°26.753 3°7.231 43.8 10.8 38.8 10.3
2002-05-17 09:40:08 51°26.891 3°7.407 43.2 10.8 38 10.5
2002-05-17 09:41:09 51°27.033 3°7.593 44 10.8 39.1 10.4
2002-05-17 09:42:09 51°27.172 3°7.775 44.3 10.8 39.3 9.9
2002-05-17 09:43:08 51°27.309 3°7.955 44.3 10.8 39.6 10.7
2002-05-17 09:44:08 51°27.449 3°8.136 43.8 10.8 39 11.3
2002-05-17 09:45:09 51°27.591 3°8.323 43.7 10.9 39.2 11.7
2002-05-17 09:46:09 51°27.731 3°8.506 44.2 10.8 39.7 12.5
2002-05-17 09:47:09 51°27.869 3°8.686 43.5 10.1 39 12.7
2002-05-17 09:48:09 51°27.951 3°8.799 50.8 3.6 44.2 12.9
2002-05-17 09:49:09 51°27.949 3°8.824 92.7 1.3 120.4 12.9
2002-05-17 09:50:09 51°27.942 3°8.851 71.3 0.8 109.3 12.9
2002-05-17 09:51:09 51°27.94 3°8.869 66 0.6 102.6 13
2002-05-17 09:52:09 51°27.939 3°8.884 62 0.5 90.6 12.9
2002-05-17 09:53:09 51°27.939 3°8.897 58.5 0.5 85.6 12.7
2002-05-17 09:54:09 51°27.941 3°8.909 55.2 0.4 74.4 12.9
2002-05-17 09:55:09 51°27.944 3°8.919 50.7 0.4 58.3 12.9
2002-05-17 09:56:09 51°27.948 3°8.926 46.7 0.4 38.1 12.8
2002-05-17 09:57:09 51°27.954 3°8.932 43.7 0.4 26.6 12.8
2002-05-17 09:58:09 51°27.961 3°8.935 39.3 0.4 7.8 12.9
2002-05-17 09:59:09 51°27.969 3°8.935 37.8 0.5 358.3 12.9
2002-05-17 10:00:09 51°27.976 3°8.936 43.7 0.4 10.9 12.9
2002-05-17 10:01:09 51°27.981 3°8.94 53 0.3 60.5 12.9
2002-05-17 10:02:09 51°27.98 3°8.949 62.5 0.4 105.8 12.9
2002-05-17 10:03:09 51°27.975 3°8.963 76.8 0.8 132.4 12.9
2002-05-17 10:04:09 51°27.962 3°8.98 88.2 1 144 12.8
2002-05-17 10:05:09 51°27.949 3°8.993 73.5 0.8 148.3 12.7
2002-05-17 10:06:09 51°27.94 3°8.999 56.2 0.4 156.5 12.7
2002-05-17 10:07:09 51°27.939 3°8.999 39.3 0.1 341.5 12.7
2002-05-17 10:08:09 51°27.947 3°8.995 27.2 0.7 339.8 12.8
2002-05-17 10:09:09 51°27.959 3°8.99 32.2 0.7 350.4 12.9
2002-05-17 10:10:09 51°27.97 3°8.989 36.3 0.6 3.6 12.9
2002-05-17 10:11:09 51°27.98 3°8.992 40.5 0.6 16.9 12.9
2002-05-17 10:12:09 51°27.99 3°8.999 44.3 0.6 30.6 12.9
2002-05-17 10:13:09 51°27.996 3°9.009 53.2 0.5 62.7 12.9
2002-05-17 10:14:09 51°27.996 3°9.024 62.5 0.7 91.9 12.9
2002-05-17 10:15:09 51°27.995 3°9.041 54.2 0.5 89.3 12.9
2002-05-17 10:16:09 51°27.998 3°9.052 49.3 0.4 68.8 12.9
2002-05-17 10:17:09 51°27.998 3°9.061 56.8 0.4 94.2 13
2002-05-17 10:18:09 51°27.997 3°9.07 47.5 0.2 94.3 12.9
2002-05-17 10:19:09 51°28.001 3°9.063 13 0.7 294 12.9
2002-05-17 10:20:09 51°28.005 3°9.03 334.8 1.6 276.6 12.9
2002-05-17 10:21:09 51°28.008 3°8.965 303.5 3.6 279.3 13
2002-05-17 10:22:09 51°28.021 3°8.822 294 6.3 278.8 13.2
2002-05-17 10:23:09 51°28.034 3°8.564 280.7 11.9 272.2 12.9
2002-05-17 10:24:09 51°28.058 3°8.237 288.8 12.5 279.9 11.9
2002-05-17 10:25:09 51°28.091 3°7.908 287.7 12.6 279 12.6
2002-05-17 10:26:09 51°28.126 3°7.568 286.8 13.8 278.7 13.4
2002-05-17 10:27:09 51°28.166 3°7.194 287.3 14.4 279.3 14
2002-05-17 10:28:09 51°28.204 3°6.816 287.8 14.4 279.4 14.4
2002-05-17 10:29:09 51°28.243 3°6.438 287.8 14.4 279.7 14.6
2002-05-17 10:30:09 51°28.283 3°6.06 287.8 14.4 279.8 15.2
2002-05-17 10:31:09 51°28.33 3°5.685 290.2 14.4 282.2 15
2002-05-17 10:32:09 51°28.381 3°5.309 290.2 14.5 282.1 15
2002-05-17 10:33:09 51°28.433 3°4.931 290.3 14.5 282.5 17.4
2002-05-17 10:34:09 51°28.485 3°4.55 289.3 14.7 282 19.5
2002-05-17 10:35:09 51°28.518 3°4.171 272.7 13.6 267.4 21
2002-05-17 10:36:09 51°28.554 3°3.87 313.5 9.7 299.2 22.3
2002-05-17 10:37:09 51°28.62 3°3.739 340.3 4.8 315.5 22.7
2002-05-17 10:38:09 51°28.661 3°3.69 7.2 2.1 322.7 22.9
2002-05-17 10:39:09 51°28.68 3°3.663 25.2 1.1 317.3 22.9
2002-05-17 10:40:09 51°28.689 3°3.648 37.8 0.6 310.6 23
2002-05-17 10:41:09 51°28.694 3°3.637 42 0.4 308.1 22.7
2002-05-17 10:42:09 51°28.697 3°3.631 53 0.1 303.3 23
2002-05-17 10:43:09 51°28.691 3°3.635 79 0.7 154.9 23
2002-05-17 10:44:09 51°28.675 3°3.648 89.8 1.3 154.8 22.9
2002-05-17 10:45:09 51°28.657 3°3.663 82.3 1.1 150.6 22.8
2002-05-17 10:46:09 51°28.645 3°3.677 69.3 0.7 145.4 22.8
2002-05-17 10:47:09 51°28.638 3°3.686 61.3 0.5 123.4 22.9
2002-05-17 10:48:09 51°28.636 3°3.697 58 0.5 82 22.9
2002-05-17 10:49:09 51°28.641 3°3.715 56.7 0.9 65.2 22.9
2002-05-17 10:50:09 51°28.648 3°3.739 58.3 1.1 65.9 22.8
2002-05-17 10:51:09 51°28.655 3°3.769 61.2 1.2 70.7 22.8
2002-05-17 10:52:09 51°28.659 3°3.802 64.2 1.3 78.2 22.7
2002-05-17 10:53:09 51°28.66 3°3.83 63.5 0.8 94.6 22.8
2002-05-17 10:54:09 51°28.662 3°3.835 38.7 0.3 305.4 22.8
2002-05-17 10:55:09 51°28.665 3°3.813 9.7 1.2 278.6 22.9
2002-05-17 10:56:09 51°28.668 3°3.77 348.7 1.8 276 22.8
2002-05-17 10:57:09 51°28.671 3°3.722 1.3 1.7 280.9 22.9
2002-05-17 10:58:09 51°28.677 3°3.685 21.2 1.2 285.6 23
2002-05-17 10:59:09 51°28.682 3°3.659 28 0.9 290.6 23
2002-05-17 11:00:09 51°28.684 3°3.633 26.8 1 271.8 23.1
2002-05-17 11:01:09 51°28.686 3°3.61 34.8 0.8 284.2 23
2002-05-17 11:02:09 51°28.688 3°3.601 58.3 0.1 201.7 23.1
2002-05-17 11:03:09 51°28.684 3°3.611 71.8 0.7 127.6 23.1
2002-05-17 11:04:09 51°28.672 3°3.626 76.5 1 135.8 23
2002-05-17 11:05:09 51°28.662 3°3.65 77.3 1.1 131.2 23
2002-05-17 11:06:09 51°28.649 3°3.671 72.8 1 121.6 23
2002-05-17 11:07:09 51°28.643 3°3.69 66.7 0.7 109.7 22.9
2002-05-17 11:08:09 51°28.634 3°3.709 89.5 1.2 143.6 23
2002-05-17 11:09:09 51°28.603 3°3.724 126.8 2.4 171.6 22.9
2002-05-17 11:10:09 51°28.54 3°3.723 176.5 6.2 186.7 22.7
2002-05-17 11:11:09 51°28.405 3°3.583 212.7 12 214.7 22.4
2002-05-17 11:12:09 51°28.22 3°3.332 222.5 15.3 222.8 22.1
2002-05-17 11:13:09 51°28.053 3°3.022 231.8 15.4 231.2 22.3
2002-05-17 11:14:09 51°27.89 3°2.705 232.2 15.4 230.8 21.9
2002-05-17 11:15:09 51°27.727 3°2.389 231.3 15.4 230.4 22.1
2002-05-17 11:16:09 51°27.564 3°2.072 231.2 15.5 230.3 21.5
2002-05-17 11:17:09 51°27.393 3°1.762 228.7 15.5 228 21.7
2002-05-17 11:18:09 51°27.22 3°1.451 229.7 15.7 228.4 20.2
2002-05-17 11:19:09 51°27.041 3°1.148 227 15.7 225.9 19.4
2002-05-17 11:20:09 51°26.859 3°0.846 227 15.7 226.3 23.1
2002-05-17 11:21:09 51°26.677 3°0.544 227.2 15.8 226 23.7
2002-05-17 11:22:09 51°26.494 3°0.241 227.5 15.8 226.5 24
2002-05-17 11:23:09 51°26.311 2°59.943 226.8 15.7 225.4 24.1
2002-05-17 11:24:09 51°26.128 2°59.647 227 15.6 225.5 23.9
2002-05-17 11:25:09 51°25.946 2°59.351 227.3 15.6 225.6 23.4
2002-05-17 11:26:09 51°25.772 2°59.04 234.5 15.6 231.9 23.1
2002-05-17 11:27:09 51°25.611 2°58.712 234.8 15.6 232.1 22.9
2002-05-17 11:28:09 51°25.453 2°58.383 234.7 15.5 232.4 22.4
2002-05-17 11:29:09 51°25.295 2°58.054 234.2 15.6 232.1 22.3
2002-05-17 11:30:09 51°25.135 2°57.726 234.2 15.6 232.3 22.2
2002-05-17 11:31:09 51°24.976 2°57.397 234.2 15.6 232.7 21.8
2002-05-17 11:32:09 51°24.819 2°57.066 234.5 15.6 233.2 21.2
2002-05-17 11:33:09 51°24.662 2°56.737 234.3 15.5 233 21.3
2002-05-17 11:34:09 51°24.502 2°56.409 233.8 15.6 232.4 21.5
2002-05-17 11:35:09 51°24.346 2°56.079 233.7 15.6 232.6 22.7
2002-05-17 11:36:09 51°24.197 2°55.743 245 15.5 241.3 22.1
2002-05-17 11:37:09 51°24.115 2°55.356 258.5 15.4 253.4 20.9
2002-05-17 11:38:09 51°24.04 2°54.964 256.8 15.4 252.4 20.5
2002-05-17 11:39:09 51°23.94 2°54.584 246.7 15.5 243.6 20.7
2002-05-17 11:40:09 51°23.789 2°54.253 228.7 15.5 228.4 20.4
2002-05-17 11:41:09 51°23.615 2°53.95 228.2 15.5 227.7 19.6
2002-05-17 11:42:09 51°23.439 2°53.644 229 15.5 228 20.4
2002-05-17 11:43:09 51°23.266 2°53.342 227.8 15.4 227.4 19.7
2002-05-17 11:44:09 51°23.093 2°53.037 229.5 15.4 228.2 22.2
2002-05-17 11:45:09 51°22.921 2°52.729 228.3 15.4 228 21.7
2002-05-17 11:46:09 51°22.751 2°52.421 229.3 15.4 228.6 21.1
2002-05-17 11:47:09 51°22.579 2°52.116 228.7 15.5 228 22.4
2002-05-17 11:48:09 51°22.408 2°51.804 229.3 15.6 228.7 22.9
2002-05-17 11:49:09 51°22.238 2°51.492 228.7 15.6 228.5 23
2002-05-17 11:50:09 51°22.066 2°51.185 228.5 15.5 228.4 22.6
2002-05-17 11:51:09 51°21.896 2°50.873 229 15.5 228.8 22.8
2002-05-17 11:52:09 51°21.73 2°50.558 229.7 15.5 231.6 23
2002-05-17 11:53:09 51°21.57 2°50.235 228.3 15.5 230.6 22.9
2002-05-17 11:54:09 51°21.393 2°49.94 219.3 15.4 222.6 22.3
2002-05-17 11:55:09 51°21.203 2°49.667 219.2 15.3 221.7 22.2
2002-05-17 11:56:09 51°21.014 2°49.395 220.2 15.4 222.3 22.6
2002-05-17 11:57:09 51°20.825 2°49.121 219.5 15.3 222.2 22.3
2002-05-17 11:58:09 51°20.636 2°48.845 219.7 15.5 222.4 22.5
2002-05-17 11:59:09 51°20.448 2°48.565 220.5 15.5 222.8 22.4
2002-05-17 12:00:09 51°20.259 2°48.287 219.5 15.4 222.3 22.3
2002-05-17 12:01:09 51°20.07 2°48.008 219.5 15.5 222.1 22.1
2002-05-17 12:02:09 51°19.895 2°47.747 223.2 12 225.4 22
2002-05-17 12:03:09 51°19.772 2°47.681 130.7 6.8 149.9 22.1
2002-05-17 12:04:09 51°19.794 2°47.767 22.8 5.3 10.2 22.2
2002-05-17 12:05:09 51°19.858 2°47.705 4.5 2.2 287.1 22.1
2002-05-17 12:06:09 51°19.876 2°47.698 62.8 1.4 53.5 22.3
2002-05-17 12:07:09 51°19.885 2°47.728 65.5 0.4 94.3 22.2
2002-05-17 12:08:09 51°19.878 2°47.734 76 0.7 171.3 22.2
2002-05-17 12:09:09 51°19.863 2°47.733 82 1 188.7 22.3
2002-05-17 12:10:09 51°19.845 2°47.729 83.2 1.1 182.5 22.2
2002-05-17 12:11:09 51°19.829 2°47.735 77.5 0.9 149.2 22.3
2002-05-17 12:12:09 51°19.821 2°47.75 68.7 0.7 114.9 22.3
2002-05-17 12:13:09 51°19.824 2°47.761 46.5 0.6 10.1 22.3
2002-05-17 12:14:09 51°19.842 2°47.751 33.2 1.6 349.5 22.3
2002-05-17 12:15:09 51°19.858 2°47.741 42.3 0.8 316.7 22.4
2002-05-17 12:16:09 51°19.862 2°47.724 46.8 0.7 275.1 22.2
2002-05-17 12:17:09 51°19.861 2°47.703 55.3 0.7 250.3 22.4
2002-05-17 12:18:09 51°19.852 2°47.688 75.8 0.8 202.4 22.3
2002-05-17 12:19:09 51°19.852 2°47.71 53.5 2.2 49.6 22.3
2002-05-17 12:20:09 51°19.912 2°47.77 40.7 4.8 28.1 22.3
2002-05-17 12:21:09 51°19.932 2°47.777 59.8 0.3 309.6 22.3
2002-05-17 12:22:09 51°19.932 2°47.77 57.2 0.4 260.1 22.4
2002-05-17 12:23:09 51°19.933 2°47.758 50.5 0.4 296.6 22.3
2002-05-17 12:24:09 51°19.936 2°47.75 58.3 0.3 271.1 22.4
2002-05-17 12:25:09 51°19.931 2°47.742 65.8 0.6 217.8 22.5
2002-05-17 12:26:09 51°19.925 2°47.729 54.3 0.6 243.7 22.4
2002-05-17 12:27:09 51°19.923 2°47.716 53.7 0.4 265.8 22.5
2002-05-17 12:28:09 51°19.923 2°47.707 60 0.2 259.6 22.3
2002-05-17 12:29:09 51°19.919 2°47.705 71.3 0.4 178 22.4
2002-05-17 12:30:09 51°19.907 2°47.706 78.2 0.8 179.8 22.4
2002-05-17 12:31:09 51°19.896 2°47.703 72.3 0.6 183.6 22.5
2002-05-17 12:32:09 51°19.877 2°47.708 110.3 1.7 170.3 22.5
2002-05-17 12:33:09 51°19.835 2°47.707 148.5 3 186.3 22.5
2002-05-17 12:34:09 51°19.779 2°47.682 171.8 3.5 202.5 22.6
2002-05-17 12:35:09 51°19.73 2°47.641 176.5 3.3 208.9 22.4
2002-05-17 12:36:09 51°19.684 2°47.597 181 3.2 212.2 22.4
2002-05-17 12:37:09 51°19.638 2°47.547 188.5 3.3 215.6 22.4
2002-05-17 12:38:09 51°19.594 2°47.49 203.5 3.6 221.6 22.3
2002-05-17 12:39:09 51°19.563 2°47.324 283.7 9.2 274.8 22.2
2002-05-17 12:40:09 51°19.471 2°47.069 224.8 13.6 225.9 22
2002-05-17 12:41:09 51°19.325 2°46.749 239.3 15.2 238.3 21.8
2002-05-17 12:42:09 51°19.176 2°46.424 244.5 15.2 240.9 21.2
2002-05-17 12:43:09 51°19.036 2°46.099 222.3 15 222.9 20.8
2002-05-17 12:44:09 51°18.88 2°45.783 239 15.2 237.8 19.9
2002-05-17 12:45:09 51°18.75 2°45.435 240 15.3 238.5 19.1
2002-05-17 12:46:09 51°18.617 2°45.09 240.7 15.2 238.8 17.9
2002-05-17 12:47:09 51°18.487 2°44.744 240.5 15.2 238.4 14.8
2002-05-17 12:48:09 51°18.357 2°44.406 242.7 14.7 239.7 14.9
2002-05-17 12:49:09 51°18.232 2°44.069 243 14.5 240.1 12.3
2002-05-17 12:50:09 51°18.111 2°43.738 241.8 14.4 239.2 12.9
2002-05-17 12:51:09 51°17.989 2°43.409 242.5 14.4 239.9 13.7
2002-05-17 12:52:09 51°17.868 2°43.076 242.3 14.5 239.9 20.4
2002-05-17 12:53:09 51°17.749 2°42.742 240.8 14.5 238.9 22.6
2002-05-17 12:54:09 51°17.629 2°42.406 242.5 14.6 240.6 23.8
2002-05-17 12:55:09 51°17.508 2°42.07 241.2 14.5 239.9 24.3
2002-05-17 12:56:09 51°17.388 2°41.734 243.5 14.7 241.8 25.1
2002-05-17 12:57:09 51°17.271 2°41.407 242.8 12.3 240.6 24.6
2002-05-17 12:58:09 51°17.223 2°41.227 275.5 4.8 261.4 24.5
2002-05-17 12:59:09 51°17.208 2°41.175 304 1.5 212.7 24.7
2002-05-17 13:00:09 51°17.264 2°41.128 32.2 6 18.9 24.5
2002-05-17 13:01:09 51°17.304 2°41.185 76.8 0.4 103.7 24.7
2002-05-17 13:02:09 51°17.289 2°41.208 89.8 1.2 144.9 24.7
2002-05-17 13:03:09 51°17.274 2°41.221 77.2 0.8 160.7 24.7
2002-05-17 13:04:09 51°17.265 2°41.224 74.7 0.8 170.5 24.8
2002-05-17 13:05:09 51°17.248 2°41.229 63.3 0.5 183 24.8
2002-05-17 13:06:09 51°17.248 2°41.219 46.3 0.4 214.3 24.8
2002-05-17 13:07:09 51°17.245 2°41.207 30 0.6 268.6 24.8
2002-05-17 13:08:09 51°17.246 2°41.187 26.5 0.9 284 24.8
2002-05-17 13:09:09 51°17.249 2°41.168 34.2 0.7 285.1 24.8
2002-05-17 13:10:09 51°17.249 2°41.153 50.7 0.4 268.1 24.9
2002-05-17 13:11:09 51°17.248 2°41.148 61.8 0.2 191.6 24.7
2002-05-17 13:12:09 51°17.244 2°41.147 59.5 0.3 185.8 24.7
2002-05-17 13:13:09 51°17.239 2°41.146 46 0.1 219.5 24.8
2002-05-17 13:14:09 51°17.24 2°41.138 18.5 0.7 285.5 25
2002-05-17 13:15:09 51°17.244 2°41.104 338.2 1.6 282.6 24.9
2002-05-17 13:16:09 51°17.248 2°41.06 336 1.6 274.3 24.7
2002-05-17 13:17:09 51°17.249 2°41.022 339.3 1.4 263.7 24.6
2002-05-17 13:18:09 51°17.243 2°40.984 336.8 1.4 255.1 24.6
2002-05-17 13:19:09 51°17.237 2°40.946 331.3 1.5 248.9 24.6
2002-05-17 13:20:09 51°17.227 2°40.91 323.8 1.5 245.4 24.5
2002-05-17 13:21:09 51°17.215 2°40.874 315.2 1.5 241.4 24.5
2002-05-17 13:22:09 51°17.203 2°40.839 313.2 1.5 241 24.4
2002-05-17 13:23:09 51°17.195 2°40.8 323.3 2.1 283.1 24.3
2002-05-17 13:24:09 51°17.219 2°40.758 2.8 2.2 329.8 24
2002-05-17 13:25:09 51°17.247 2°40.747 23.7 1.3 349.6 23.7
2002-05-17 13:26:09 51°17.265 2°40.74 24.5 1.1 341.7 23.7
2002-05-17 13:27:09 51°17.28 2°40.731 24.7 0.9 338.8 23.3
2002-05-17 13:28:09 51°17.294 2°40.723 26 0.8 340.8 23.4
2002-05-17 13:29:09 51°17.306 2°40.714 25.8 0.8 332.4 23.1
2002-05-17 13:30:09 51°17.318 2°40.706 26.5 0.9 352.8 23.2
2002-05-17 13:31:09 51°17.323 2°40.775 121.3 4.2 124.3 23.5
2002-05-17 13:32:09 51°17.23 2°40.749 212.8 7.9 214 23.9
2002-05-17 13:33:09 51°17.042 2°40.657 190.3 13.6 190.1 24.2
2002-05-17 13:34:09 51°16.817 2°40.598 187.8 13.8 188.2 24.3
2002-05-17 13:35:09 51°16.591 2°40.549 187.2 13.5 187.1 23.8
2002-05-17 13:36:09 51°16.366 2°40.501 187.3 13.7 186.8 23.3
2002-05-17 13:37:09 51°16.139 2°40.472 182.3 13.9 182.9 21.8
2002-05-17 13:38:09 51°15.91 2°40.456 183.8 13.8 183.5 20.2
2002-05-17 13:39:09 51°15.681 2°40.44 184.7 13.8 183.9 18
2002-05-17 13:40:09 51°15.45 2°40.452 172.3 14 171.9 15.6
2002-05-17 13:41:09 51°15.227 2°40.541 164.7 13.8 163.4 14.2
2002-05-17 13:42:09 51°15.006 2°40.649 165.5 14 163.3 14.3
2002-05-17 13:43:09 51°14.783 2°40.759 164.5 14 161.2 14.3
2002-05-17 13:44:10 51°14.56 2°40.877 162.5 13.9 158.7 15.3
2002-05-17 13:45:09 51°14.346 2°41.003 165.3 14 161.9 16.5
2002-05-17 13:46:09 51°14.214 2°41.107 126.3 6.2 129.1 16.1
2002-05-17 13:47:09 51°14.185 2°41.172 114 0.6 207.4 16.7
2002-05-17 13:48:10 51°14.176 2°41.166 143.5 0.5 197 -999
2002-05-17 13:49:11 51°14.168 2°41.167 163.2 0.6 170 17
2002-05-17 13:50:10 51°14.156 2°41.171 166.8 0.9 165.3 17.2
2002-05-17 13:51:11 51°14.143 2°41.178 160.2 0.8 156.3 17.4
2002-05-17 13:52:10 51°14.131 2°41.188 152.7 0.9 151.4 17.5
2002-05-17 13:53:10 51°14.118 2°41.198 147.3 0.8 152.1 17.8
2002-05-17 13:54:10 51°14.106 2°41.21 144 1 144.5 17.7
2002-05-17 13:55:10 51°14.093 2°41.223 139.2 0.9 148.5 17.9
2002-05-17 13:56:10 51°14.082 2°41.236 133.5 0.9 142.6 18.3
2002-05-17 13:57:11 51°14.07 2°41.252 129.5 0.9 138.9 18.4
2002-05-17 13:58:10 51°14.058 2°41.268 131.8 0.9 143.4 18.6
2002-05-17 13:59:10 51°14.046 2°41.282 133.3 0.8 143.1 18.7
2002-05-17 14:00:11 51°14.035 2°41.295 134.3 0.8 141.3 18.6
2002-05-17 14:01:10 51°14.024 2°41.309 134.3 0.8 140.4 18.6
2002-05-17 14:02:10 51°14.014 2°41.323 134.5 0.8 137.1 19
2002-05-17 14:03:11 51°14.004 2°41.338 132.3 0.8 135.5 18.7
2002-05-17 14:04:10 51°13.994 2°41.355 131.5 0.9 130 18.8
2002-05-17 14:05:10 51°13.983 2°41.374 131.8 0.9 133.6 19.2
2002-05-17 14:06:10 51°13.971 2°41.398 133.7 1.3 128.4 19.4
2002-05-17 14:07:10 51°13.954 2°41.432 134.5 1.8 127.5 19.5
2002-05-17 14:08:10 51°13.935 2°41.472 139.3 1.9 129.4 19.4
2002-05-17 14:09:10 51°13.906 2°41.507 168.7 2.2 153 19.4
2002-05-17 14:10:10 51°13.874 2°41.519 191 1.9 174.6 19.3
2002-05-17 14:11:10 51°13.844 2°41.511 216.2 1.7 200.5 19.2
2002-05-17 14:12:10 51°13.825 2°41.485 251.7 1.4 239 19.2
2002-05-17 14:13:11 51°13.821 2°41.452 276 1.2 269.4 19.2
2002-05-17 14:14:10 51°13.826 2°41.42 293.7 1.3 291.6 19.2
2002-05-17 14:15:10 51°13.893 2°41.393 14.5 7.3 12.5 19.4
2002-05-17 14:16:10 51°14.007 2°41.599 60.7 12.8 58.9 19.7
2002-05-17 14:17:11 51°14.078 2°41.955 79 14.1 77.4 19.6
2002-05-17 14:18:10 51°14.126 2°42.315 78.7 14.1 77.5 19.1
2002-05-17 14:19:10 51°14.176 2°42.679 78.7 14 77.2 18.8
2002-05-17 14:20:10 51°14.228 2°43.041 78.8 14.1 77 18.2
2002-05-17 14:21:10 51°14.28 2°43.403 78.3 14 76.8 18.3
2002-05-17 14:22:10 51°14.339 2°43.761 75.3 14 74.1 17.5
2002-05-17 14:23:10 51°14.398 2°44.121 78.8 14.1 77.1 16.7
2002-05-17 14:24:11 51°14.451 2°44.491 79.5 14.1 77.6 15.5
2002-05-17 14:25:10 51°14.502 2°44.851 79 14.2 77.4 14.1
2002-05-17 14:26:10 51°14.552 2°45.218 79.5 14.2 77.9 12.6
2002-05-17 14:27:10 51°14.605 2°45.591 79.3 14.2 77.7 11.2
2002-05-17 14:28:10 51°14.658 2°45.961 79.5 14.4 77.5 11.2
2002-05-17 14:29:10 51°14.702 2°46.329 80.2 14.4 78.6 12.2
2002-05-17 14:30:11 51°14.748 2°46.703 79.5 14.2 77.7 13.7
2002-05-17 14:31:10 51°14.795 2°47.067 80 14.3 78.3 15.2
2002-05-17 14:32:10 51°14.845 2°47.439 79.8 14.3 78 15.5
2002-05-17 14:33:10 51°14.897 2°47.811 79.8 14.3 77.6 15.5
2002-05-17 14:34:10 51°14.946 2°48.185 79.5 14.3 77.8 15.5
2002-05-17 14:35:10 51°14.996 2°48.554 79.3 14.3 77 15.3
2002-05-17 14:36:11 51°15.045 2°48.924 82.7 13.9 79.8 15.4
2002-05-17 14:37:10 51°15.087 2°49.28 82.5 13.9 79.5 15.5
2002-05-17 14:38:10 51°15.131 2°49.643 82.7 13.9 79.5 15.5
2002-05-17 14:39:10 51°15.174 2°50.005 82.5 13.9 79.3 15.6
2002-05-17 14:40:10 51°15.217 2°50.367 81.8 13.9 78.7 15.4
2002-05-17 14:41:10 51°15.255 2°50.73 84.3 13.9 80.8 15.3
2002-05-17 14:42:10 51°15.292 2°51.094 84.3 13.9 81.3 15.3
2002-05-17 14:43:10 51°15.303 2°51.46 96.7 13.8 93.5 15
2002-05-17 14:44:10 51°15.26 2°51.816 112.5 13.7 108.1 14.6
2002-05-17 14:45:10 51°15.141 2°52.123 126.2 13.6 123 14.1
2002-05-17 14:46:10 51°15.024 2°52.435 126.2 13.8 120.7 13.5
2002-05-17 14:47:10 51°14.928 2°52.77 117.5 14 113.6 12.9
2002-05-17 14:48:10 51°14.839 2°53.119 117.8 14.2 112.4 12.6
2002-05-17 14:49:10 51°14.751 2°53.463 115 14 111 12.5
2002-05-17 14:50:10 51°14.674 2°53.812 110.2 13.9 105.6 12.6
2002-05-17 14:51:10 51°14.621 2°54.148 111.5 12.6 105.5 13.2
2002-05-17 14:52:10 51°14.557 2°54.456 117.7 12.1 110.7 12.8
2002-05-17 14:53:10 51°14.474 2°54.753 123.5 12.3 116.6 12.9
2002-05-17 14:54:11 51°14.372 2°55.038 127.8 12.2 119.9 12.7
2002-05-17 14:55:10 51°14.257 2°55.249 133.7 9.4 133.4 13
2002-05-17 14:56:10 51°14.16 2°55.378 150.7 6.7 148.5 12.9
2002-05-17 14:57:10 51°14.072 2°55.446 155.8 5.6 154.7 12.9
2002-05-17 14:58:10 51°13.989 2°55.506 157.5 5.6 156.3 12.8
2002-05-17 14:59:10 51°13.898 2°55.566 159.7 6.2 159.5 12.6
2002-05-17 15:00:10 51°13.802 2°55.633 151.7 6.1 152.8 13.1
2002-05-17 15:01:10 51°13.727 2°55.723 136.8 5.5 137.5 13.5
2002-05-17 15:02:10 51°13.67 2°55.833 126.5 5.4 126.2 12.1
2002-05-17 15:03:10 51°13.621 2°55.948 125.2 5.1 124.2 11.9
2002-05-17 15:04:10 51°13.578 2°56.047 124.5 4.1 124.5 12.2
2002-05-17 15:05:10 51°13.545 2°56.127 123.3 3.4 123 13
2002-05-17 15:06:15 51°13.532 2°56.213 73 3.2 76.6 -999
2002-05-17 15:07:15 51°13.559 2°56.259 27.3 1.9 26.7 -999
2002-05-17 15:08:15 51°13.543 2°56.251 17.3 1.7 197.9 -999
2002-05-17 15:09:15 51°13.525 2°56.241 357.2 0.8 339.6 -999
2002-05-17 15:10:15 51°13.527 2°56.239 323 0.7 150.9 -999
2002-05-17 15:11:15 51°13.542 2°56.202 305.8 2.7 302.8 -999
2002-05-17 15:12:15 51°13.575 2°56.118 308 3.9 303.8 -999
2002-05-17 15:13:15 51°13.606 2°56.045 309.5 3 303.1 -999
2002-05-17 15:14:15 51°13.629 2°55.988 313.5 2.4 306.5 -999
2002-05-17 15:15:15 51°13.653 2°55.946 320.5 2 316.2 -999
2002-05-17 15:16:15 51°13.674 2°55.912 315.5 1.6 312 -999
2002-05-17 15:17:15 51°13.682 2°55.896 311.2 0.6 302 -999
2002-05-17 15:18:15 51°13.686 2°55.886 315.2 0.2 345.8 -999
2002-05-17 15:19:15 51°13.688 2°55.884 335.8 0.2 308.5 -999
2002-05-17 15:20:15 51°13.687 2°55.886 330.2 0.2 134.4 -999
2002-05-17 15:21:15 51°13.688 2°55.887 309 0.1 353.5 -999
2002-05-17 15:22:15 51°13.687 2°55.887 310   212.3 -999
2002-05-17 15:23:15 51°13.687 2°55.887 310.3   18.5 -999
2002-05-17 15:24:15 51°13.687 2°55.887 310.3   44.6 -999